createdAt,value
2022-07-31T04:02:32.736Z,18.9
2022-07-31T04:04:47.140Z,18.950001
2022-07-31T04:07:01.562Z,19.059999
2022-07-31T04:09:19.016Z,19.209999
2022-07-31T04:11:42.027Z,19.389999
2022-07-31T04:13:56.379Z,19.59
2022-07-31T04:16:10.714Z,19.780001
2022-07-31T04:18:25.097Z,19.959999
2022-07-31T04:20:39.550Z,20.110001
2022-07-31T04:22:53.893Z,20.200001
2022-07-31T04:25:08.314Z,20.25
2022-07-31T04:27:22.678Z,20.290001
2022-07-31T04:29:37.069Z,20.32
2022-07-31T04:31:51.459Z,20.370001
2022-07-31T04:34:05.808Z,20.42
2022-07-31T04:36:29.055Z,20.440001
2022-07-31T04:38:37.539Z,20.459999
2022-07-31T04:40:51.865Z,20.48
2022-07-31T04:43:06.184Z,20.51
2022-07-31T04:45:21.605Z,20.52
2022-07-31T04:47:36.959Z,20.51
2022-07-31T04:49:51.302Z,20.5
2022-07-31T04:52:07.634Z,20.5
2022-07-31T04:54:22.012Z,20.51
2022-07-31T04:56:36.436Z,20.549999
2022-07-31T04:58:50.784Z,20.57
2022-07-31T05:01:05.141Z,20.59
2022-07-31T05:03:22.475Z,20.629999
2022-07-31T05:05:36.838Z,20.66
2022-07-31T05:07:51.211Z,20.690001
2022-07-31T05:10:05.572Z,20.690001
2022-07-31T05:12:19.963Z,20.700001
2022-07-31T05:14:34.293Z,20.74
2022-07-31T05:16:48.664Z,20.780001
2022-07-31T05:19:03.085Z,20.799999
2022-07-31T05:21:20.547Z,20.809999
2022-07-31T05:23:34.943Z,20.82
2022-07-31T05:25:49.347Z,20.83
2022-07-31T05:28:03.695Z,20.83
2022-07-31T05:30:30.282Z,20.83
2022-07-31T05:32:37.416Z,20.84
2022-07-31T05:34:51.821Z,20.85
2022-07-31T05:37:07.191Z,20.85
2022-07-31T05:39:21.657Z,20.85
2022-07-31T05:41:36.104Z,20.860001
2022-07-31T05:43:50.444Z,20.860001
2022-07-31T05:46:04.845Z,20.85
2022-07-31T05:48:19.217Z,20.83
2022-07-31T05:50:33.641Z,20.83
2022-07-31T05:52:47.975Z,20.85
2022-07-31T05:55:02.398Z,20.870001
2022-07-31T05:57:33.187Z,20.91
2022-07-31T05:59:35.185Z,20.93
2022-07-31T06:01:49.610Z,20.940001
2022-07-31T06:04:03.917Z,20.940001
2022-07-31T06:06:18.314Z,20.91
2022-07-31T06:08:32.678Z,20.879999
2022-07-31T06:10:47.056Z,20.83
2022-07-31T06:13:01.462Z,20.799999
2022-07-31T06:15:15.818Z,20.77
2022-07-31T06:17:40.495Z,20.73
2022-07-31T06:19:47.499Z,20.690001
2022-07-31T06:22:03.172Z,20.66
2022-07-31T06:24:17.229Z,20.629999
2022-07-31T06:26:32.576Z,20.6
2022-07-31T06:28:47.790Z,20.6
2022-07-31T06:31:01.358Z,20.610001
2022-07-31T06:33:15.854Z,20.629999
2022-07-31T06:35:33.070Z,20.66
2022-07-31T06:37:47.479Z,20.690001
2022-07-31T06:40:01.848Z,20.719999
2022-07-31T06:42:17.244Z,20.74
2022-07-31T06:44:31.667Z,20.74
2022-07-31T06:46:49.579Z,20.719999
2022-07-31T06:49:08.371Z,20.709999
2022-07-31T06:51:33.450Z,20.73
2022-07-31T06:53:36.598Z,20.780001
2022-07-31T06:55:50.937Z,20.84
2022-07-31T06:58:05.341Z,20.9
2022-07-31T07:00:21.003Z,20.950001
2022-07-31T07:02:34.062Z,20.99
2022-07-31T07:04:56.154Z,21.040001
2022-07-31T07:07:05.982Z,21.120001
2022-07-31T07:09:20.332Z,21.190001
2022-07-31T07:11:34.697Z,21.23
2022-07-31T07:13:49.144Z,21.27
2022-07-31T07:16:05.349Z,21.290001
2022-07-31T07:18:20.735Z,21.299999
2022-07-31T07:20:35.179Z,21.299999
2022-07-31T07:22:49.568Z,21.309999
2022-07-31T07:25:04.924Z,21.33
2022-07-31T07:27:19.472Z,21.370001
2022-07-31T07:29:33.957Z,21.440001
2022-07-31T07:31:50.518Z,21.5
2022-07-31T07:34:04.899Z,21.49
2022-07-31T07:36:21.848Z,21.440001
2022-07-31T07:38:35.035Z,21.4
2022-07-31T07:40:49.481Z,21.35
2022-07-31T07:43:03.955Z,21.33
2022-07-31T07:45:18.312Z,21.35
2022-07-31T07:47:53.505Z,21.360001
2022-07-31T07:49:50.236Z,21.389999
2022-07-31T07:52:04.580Z,21.42
2022-07-31T07:54:19.014Z,21.450001
2022-07-31T07:56:33.484Z,21.5
2022-07-31T07:58:47.794Z,21.57
2022-07-31T08:01:02.319Z,21.639999
2022-07-31T08:03:50.508Z,21.709999
2022-07-31T08:05:34.054Z,21.74
2022-07-31T08:07:48.417Z,21.74
2022-07-31T08:10:02.758Z,21.73
2022-07-31T08:12:17.197Z,21.690001
2022-07-31T08:14:31.962Z,21.66
2022-07-31T08:16:46.638Z,21.68
2022-07-31T08:19:01.083Z,21.700001
2022-07-31T08:21:15.447Z,21.74
2022-07-31T08:23:29.826Z,21.83
2022-07-31T08:25:44.253Z,21.959999
2022-07-31T08:28:00.853Z,22.07
2022-07-31T08:30:16.236Z,22.190001
2022-07-31T08:32:31.618Z,22.299999
2022-07-31T08:34:46.098Z,22.389999
2022-07-31T08:37:01.093Z,22.440001
2022-07-31T08:39:21.244Z,22.459999
2022-07-31T08:41:32.495Z,22.49
2022-07-31T08:43:59.748Z,22.51
2022-07-31T08:46:04.334Z,22.559999
2022-07-31T08:48:19.036Z,22.620001
2022-07-31T08:50:33.302Z,22.67
2022-07-31T08:52:48.181Z,22.73
2022-07-31T08:55:02.697Z,22.799999
2022-07-31T08:57:18.159Z,22.92
2022-07-31T08:59:32.956Z,23.049999
2022-07-31T09:01:47.511Z,23.17
2022-07-31T09:04:02.855Z,23.309999
2022-07-31T09:06:18.319Z,23.440001
2022-07-31T09:08:32.688Z,23.610001
2022-07-31T09:10:50.089Z,23.780001
2022-07-31T09:13:02.280Z,23.889999
2022-07-31T09:15:17.745Z,23.91
2022-07-31T09:17:32.237Z,23.91
2022-07-31T09:19:51.481Z,23.889999
2022-07-31T09:22:05.218Z,23.870001
2022-07-31T09:24:19.413Z,23.809999
2022-07-31T09:26:33.773Z,23.73
2022-07-31T09:28:48.146Z,23.66
2022-07-31T09:31:02.540Z,23.610001
2022-07-31T09:33:17.000Z,23.59
2022-07-31T09:35:31.383Z,23.629999
2022-07-31T09:37:46.823Z,23.719999
2022-07-31T09:40:02.165Z,23.77
2022-07-31T09:42:19.366Z,23.77
2022-07-31T09:44:31.939Z,23.75
2022-07-31T09:46:46.348Z,23.799999
2022-07-31T09:49:00.813Z,23.860001
2022-07-31T09:51:15.182Z,23.889999
2022-07-31T09:53:29.536Z,23.950001
2022-07-31T09:55:45.843Z,24.049999
2022-07-31T09:58:00.249Z,24.139999
2022-07-31T10:00:17.252Z,24.23
2022-07-31T10:02:29.664Z,24.27
2022-07-31T10:04:43.340Z,24.33
2022-07-31T10:06:57.812Z,24.42
2022-07-31T10:09:12.182Z,24.49
2022-07-31T10:11:26.605Z,24.58
2022-07-31T10:13:42.432Z,24.68
2022-07-31T10:15:55.523Z,24.77
2022-07-31T10:18:09.879Z,24.84
2022-07-31T10:20:24.373Z,24.879999
2022-07-31T10:22:38.805Z,24.83
2022-07-31T10:24:53.204Z,24.809999
2022-07-31T10:27:07.612Z,24.879999
2022-07-31T10:29:22.004Z,24.950001
2022-07-31T10:31:38.456Z,25.02
2022-07-31T10:33:53.098Z,25.08
2022-07-31T10:36:08.518Z,25.120001
2022-07-31T10:38:22.953Z,25.110001
2022-07-31T10:40:37.305Z,25.17
2022-07-31T10:42:53.685Z,25.25
2022-07-31T10:45:08.185Z,25.360001
2022-07-31T10:47:22.547Z,25.42
2022-07-31T10:49:36.984Z,25.51
2022-07-31T10:51:51.335Z,25.639999
2022-07-31T10:54:05.817Z,25.75
2022-07-31T10:56:20.287Z,25.799999
2022-07-31T10:58:35.775Z,25.83
2022-07-31T11:00:50.137Z,25.790001
2022-07-31T11:03:05.582Z,25.76
2022-07-31T11:05:22.046Z,25.74
2022-07-31T11:07:36.660Z,25.77
2022-07-31T11:09:51.835Z,25.809999
2022-07-31T11:12:05.712Z,25.83
2022-07-31T11:14:21.130Z,25.85
2022-07-31T11:16:35.546Z,26.040001
2022-07-31T11:18:49.992Z,26.27
2022-07-31T11:21:17.621Z,26.49
2022-07-31T11:23:21.815Z,26.719999
2022-07-31T11:25:36.310Z,26.84
2022-07-31T11:27:50.699Z,26.84
2022-07-31T11:30:07.917Z,26.92
2022-07-31T11:32:23.021Z,27.030001
2022-07-31T11:34:36.906Z,27.07
2022-07-31T11:36:51.797Z,27.08
2022-07-31T11:39:05.737Z,27.110001
2022-07-31T11:41:22.225Z,27.1
2022-07-31T11:43:34.564Z,27.08
2022-07-31T11:45:48.948Z,27.040001
2022-07-31T11:48:10.408Z,26.98
2022-07-31T11:50:23.657Z,26.959999
2022-07-31T11:52:38.065Z,27.07
2022-07-31T11:54:52.509Z,27.139999
2022-07-31T11:57:07.213Z,27.129999
2022-07-31T11:59:45.716Z,27.15
2022-07-31T12:01:40.794Z,27.219999
2022-07-31T12:03:53.249Z,27.23
2022-07-31T12:06:10.693Z,27.33
2022-07-31T12:08:25.249Z,27.49
2022-07-31T12:10:39.755Z,27.59
2022-07-31T12:12:54.220Z,27.709999
2022-07-31T12:15:08.674Z,27.82
2022-07-31T12:17:23.010Z,27.82
2022-07-31T12:19:38.648Z,27.77
2022-07-31T12:21:51.864Z,27.799999
2022-07-31T12:24:06.265Z,27.940001
2022-07-31T12:26:20.653Z,28.059999
2022-07-31T12:28:35.016Z,28.110001
2022-07-31T12:30:49.366Z,28.18
2022-07-31T12:33:03.755Z,28.360001
2022-07-31T12:35:18.124Z,28.469999
2022-07-31T12:37:33.521Z,28.58
2022-07-31T12:39:54.628Z,28.700001
2022-07-31T12:42:05.378Z,28.85
2022-07-31T12:44:21.507Z,29.040001
2022-07-31T12:46:34.305Z,29.25
2022-07-31T12:48:48.861Z,29.43
2022-07-31T12:51:03.146Z,29.75
2022-07-31T12:53:17.550Z,30.030001
2022-07-31T12:55:31.933Z,30.030001
2022-07-31T12:57:50.748Z,29.84
2022-07-31T13:00:01.865Z,29.57
2022-07-31T13:02:17.201Z,29.360001
2022-07-31T13:04:31.658Z,29.18
2022-07-31T13:06:46.044Z,29.1
2022-07-31T13:09:01.464Z,29.059999
2022-07-31T13:11:15.862Z,28.940001
2022-07-31T13:13:30.306Z,28.780001
2022-07-31T13:15:44.805Z,28.58
2022-07-31T13:17:59.261Z,28.370001
2022-07-31T13:20:16.541Z,28.16
2022-07-31T13:22:27.998Z,27.99
2022-07-31T13:24:42.344Z,27.85
2022-07-31T13:26:56.731Z,27.68
2022-07-31T13:29:11.111Z,27.549999
2022-07-31T13:31:25.551Z,27.459999
2022-07-31T13:33:40.002Z,27.379999
2022-07-31T13:35:54.399Z,27.299999
2022-07-31T13:38:08.766Z,27.27
2022-07-31T13:40:23.177Z,27.290001
2022-07-31T13:42:37.607Z,27.370001
2022-07-31T13:44:51.964Z,27.49
2022-07-31T13:47:09.372Z,27.629999
2022-07-31T13:49:23.807Z,27.66
2022-07-31T13:51:38.069Z,27.6
2022-07-31T13:53:52.519Z,27.51
2022-07-31T13:56:06.915Z,27.41
2022-07-31T13:58:22.343Z,27.299999
2022-07-31T14:00:36.710Z,27.190001
2022-07-31T14:02:51.141Z,27.09
2022-07-31T14:05:06.797Z,27.02
2022-07-31T14:07:22.874Z,26.959999
2022-07-31T14:09:47.078Z,26.91
2022-07-31T14:11:57.610Z,26.870001
2022-07-31T14:14:13.929Z,26.84
2022-07-31T14:16:31.188Z,26.879999
2022-07-31T14:18:45.637Z,27.059999
2022-07-31T14:21:00.033Z,27.450001
2022-07-31T14:23:14.393Z,27.950001
2022-07-31T14:25:29.776Z,28.450001
2022-07-31T14:27:44.275Z,28.969999
2022-07-31T14:29:58.697Z,29.450001
2022-07-31T14:32:13.055Z,29.690001
2022-07-31T14:34:31.065Z,29.620001
2022-07-31T14:36:43.875Z,29.450001
2022-07-31T14:38:58.303Z,29.32
2022-07-31T14:41:12.835Z,29.290001
2022-07-31T14:43:27.430Z,29.280001
2022-07-31T14:45:50.039Z,29.25
2022-07-31T14:48:00.122Z,29.42
2022-07-31T14:50:19.010Z,29.629999
2022-07-31T14:52:30.006Z,29.870001
2022-07-31T14:54:44.463Z,29.950001
2022-07-31T14:57:01.394Z,29.91
2022-07-31T14:59:13.161Z,29.809999
2022-07-31T15:01:30.579Z,29.709999
2022-07-31T15:03:41.978Z,29.690001
2022-07-31T15:06:37.928Z,29.68
2022-07-31T15:08:13.744Z,29.58
2022-07-31T15:10:28.171Z,29.57
2022-07-31T15:12:42.542Z,29.65
2022-07-31T15:14:56.950Z,29.65
2022-07-31T15:17:11.314Z,29.629999
2022-07-31T15:19:25.770Z,29.6
2022-07-31T15:21:40.244Z,29.43
2022-07-31T15:23:57.606Z,29.209999
2022-07-31T15:26:11.917Z,29
2022-07-31T15:28:26.314Z,28.77
2022-07-31T15:30:40.713Z,28.540001
2022-07-31T15:32:55.109Z,28.34
2022-07-31T15:35:10.557Z,28.17
2022-07-31T15:37:24.984Z,28.01
2022-07-31T15:39:39.357Z,27.879999
2022-07-31T15:41:56.809Z,27.809999
2022-07-31T15:44:11.239Z,27.75
2022-07-31T15:46:25.563Z,27.66
2022-07-31T15:48:39.985Z,27.540001
2022-07-31T15:50:55.319Z,27.42
2022-07-31T15:53:09.734Z,27.299999
2022-07-31T15:55:24.102Z,27.200001
2022-07-31T15:57:38.492Z,27.120001
2022-07-31T15:59:52.853Z,27.049999
2022-07-31T16:02:08.282Z,26.959999
2022-07-31T16:04:22.814Z,26.85
2022-07-31T16:06:39.223Z,26.74
2022-07-31T16:08:56.562Z,26.639999
2022-07-31T16:11:10.961Z,26.549999
2022-07-31T16:13:25.406Z,26.469999
2022-07-31T16:15:39.809Z,26.41
2022-07-31T16:17:54.174Z,26.370001
2022-07-31T16:20:08.532Z,26.35
2022-07-31T16:22:24.936Z,26.34
2022-07-31T16:24:39.334Z,26.33
2022-07-31T16:26:53.748Z,26.34
2022-07-31T16:29:17.334Z,26.43
2022-07-31T16:31:29.933Z,26.629999
2022-07-31T16:33:39.875Z,26.889999
2022-07-31T16:35:57.177Z,27.07
2022-07-31T16:38:11.583Z,27.139999
2022-07-31T16:40:29.594Z,27.139999
2022-07-31T16:42:41.349Z,27.09
2022-07-31T16:44:55.725Z,27.02
2022-07-31T16:47:10.515Z,26.950001
2022-07-31T16:49:28.606Z,26.870001
2022-07-31T16:51:42.879Z,26.75
2022-07-31T16:54:11.861Z,26.639999
2022-07-31T16:56:14.706Z,26.549999
2022-07-31T16:58:29.172Z,26.459999
2022-07-31T17:00:43.663Z,26.41
2022-07-31T17:02:57.960Z,26.360001
2022-07-31T17:05:12.352Z,26.299999
2022-07-31T17:07:27.284Z,26.23
2022-07-31T17:09:42.355Z,26.16
2022-07-31T17:11:56.797Z,26.110001
2022-07-31T17:14:11.284Z,26.059999
2022-07-31T17:16:26.957Z,25.99
2022-07-31T17:18:41.482Z,25.93
2022-07-31T17:20:58.942Z,25.85
2022-07-31T17:23:15.761Z,25.790001
2022-07-31T17:25:33.348Z,25.75
2022-07-31T17:27:57.716Z,25.700001
2022-07-31T17:30:11.906Z,25.66
2022-07-31T17:32:26.226Z,25.620001
2022-07-31T17:34:43.009Z,25.59
2022-07-31T17:36:57.439Z,25.559999
2022-07-31T17:39:11.848Z,25.530001
2022-07-31T17:41:26.408Z,25.530001
2022-07-31T17:43:50.257Z,25.540001
2022-07-31T17:46:05.249Z,25.530001
2022-07-31T17:48:15.846Z,25.52
2022-07-31T17:50:30.451Z,25.51
2022-07-31T17:52:44.825Z,25.48
2022-07-31T17:54:59.195Z,25.440001
2022-07-31T17:57:14.084Z,25.41
2022-07-31T17:59:29.127Z,25.360001
2022-07-31T18:01:43.658Z,25.33
2022-07-31T18:04:00.018Z,25.290001
2022-07-31T18:06:14.342Z,25.25
2022-07-31T18:08:28.741Z,25.23
2022-07-31T18:10:53.786Z,25.219999
2022-07-31T18:13:00.456Z,25.209999
2022-07-31T18:15:14.891Z,25.18
2022-07-31T18:17:30.237Z,25.16
2022-07-31T18:19:44.835Z,25.16
2022-07-31T18:21:59.400Z,25.16
2022-07-31T18:24:15.081Z,25.17
2022-07-31T18:26:29.444Z,25.18
2022-07-31T18:28:43.806Z,25.17
2022-07-31T18:30:58.245Z,25.15
2022-07-31T18:33:13.579Z,25.110001
2022-07-31T18:35:28.026Z,25.07
2022-07-31T18:37:42.416Z,25.040001
2022-07-31T18:39:56.876Z,25.01
2022-07-31T18:42:11.365Z,24.969999
2022-07-31T18:44:25.856Z,24.91
2022-07-31T18:46:40.434Z,24.85
2022-07-31T18:48:56.076Z,24.799999
2022-07-31T18:51:09.536Z,24.76
2022-07-31T18:53:23.909Z,24.73
2022-07-31T18:55:38.356Z,24.709999
2022-07-31T18:57:52.754Z,24.700001
2022-07-31T19:00:08.028Z,24.67
2022-07-31T19:02:22.462Z,24.65
2022-07-31T19:04:36.876Z,24.629999
2022-07-31T19:06:54.299Z,24.610001
2022-07-31T19:09:06.797Z,24.59
2022-07-31T19:11:21.185Z,24.57
2022-07-31T19:13:35.576Z,24.559999
2022-07-31T19:15:50.003Z,24.559999
2022-07-31T19:18:04.378Z,24.559999
2022-07-31T19:20:40.674Z,24.559999
2022-07-31T19:22:39.097Z,24.540001
2022-07-31T19:24:53.533Z,24.51
2022-07-31T19:27:07.993Z,24.48
2022-07-31T19:29:22.514Z,24.450001
2022-07-31T19:31:37.119Z,24.41
2022-07-31T19:33:51.526Z,24.379999
2022-07-31T19:36:06.943Z,24.35
2022-07-31T19:38:21.531Z,24.32
2022-07-31T19:40:38.977Z,24.309999
2022-07-31T19:42:53.342Z,24.290001
2022-07-31T19:45:07.795Z,24.280001
2022-07-31T19:47:22.213Z,24.26
2022-07-31T19:49:38.456Z,24.23
2022-07-31T19:51:51.112Z,24.219999
2022-07-31T19:54:05.550Z,24.190001
2022-07-31T19:56:21.085Z,24.16
2022-07-31T19:58:34.361Z,24.129999
2022-07-31T20:00:48.762Z,24.120001
2022-07-31T20:03:03.230Z,24.1
2022-07-31T20:05:18.611Z,24.059999
2022-07-31T20:07:33.298Z,24.030001
2022-07-31T20:09:47.368Z,24
2022-07-31T20:12:02.030Z,23.98
2022-07-31T20:14:16.265Z,23.950001
2022-07-31T20:16:30.708Z,23.93
2022-07-31T20:18:45.141Z,23.91
2022-07-31T20:20:59.624Z,23.91
2022-07-31T20:23:14.003Z,23.9
2022-07-31T20:25:28.405Z,23.9
2022-07-31T20:27:42.799Z,23.91
2022-07-31T20:29:57.303Z,23.889999
2022-07-31T20:32:12.678Z,23.870001
2022-07-31T20:34:30.163Z,23.85
2022-07-31T20:36:45.944Z,23.84
2022-07-31T20:39:01.755Z,23.83
2022-07-31T20:41:19.502Z,23.799999
2022-07-31T20:43:33.961Z,23.77
2022-07-31T20:45:48.542Z,23.73
2022-07-31T20:48:02.933Z,23.690001
2022-07-31T20:50:17.456Z,23.66
2022-07-31T20:52:31.940Z,23.629999
2022-07-31T20:54:46.337Z,23.59
2022-07-31T20:57:00.771Z,23.540001
2022-07-31T20:59:15.088Z,23.51
2022-07-31T21:01:30.572Z,23.49
2022-07-31T21:03:45.924Z,23.469999
2022-07-31T21:06:00.336Z,23.450001
2022-07-31T21:08:14.666Z,23.43
2022-07-31T21:10:29.873Z,23.4
2022-07-31T21:12:43.647Z,23.379999
2022-07-31T21:14:58.148Z,23.379999
2022-07-31T21:17:14.510Z,23.379999
2022-07-31T21:19:29.002Z,23.35
2022-07-31T21:21:43.510Z,23.309999
2022-07-31T21:23:57.896Z,23.26
2022-07-31T21:26:12.373Z,23.23
2022-07-31T21:28:26.719Z,23.200001
